Startpagina
METAR-TAF:

METAR-TAF

Vliegvelden :

Aeroporto Internacional Salgado Filho

Porto Alegre, Rio Grande do Sul, Brazilië

breedte: 30-00S, lengte: 051-11W, hoogte: 3 m

Actueel weer

Dit bericht is 17 minuten geleden gemaakt, om 02:00 UTC
Wind 2 kt uit het oostnoordoosten
Temperatuur 18°C
Vochtigheid 100%
Druk 1014 hPa
Zicht 10 km of meer
geen wolken onder 1500 m en geen cumulonimbus

METAR: SBPA 190200Z 06002KT CAVOK 18/18 Q1014

Tijdstip: 23:17 (02:17 UTC)

Verwachting

Dit bericht is 4 uur en het 17 minuten geleden gemaakt, om 22:00 UTC
Verwachting geldig van 19 om 00 UTC tot 19 om 24 UTC
Wind 8 kt uit het oosten
Zicht 10 km of meer
geen wolken onder 1500 m en geen cumulonimbus
Kans 30%
van 19 om 07 UTC tot 19 om 10 UTC
Zicht: 2000 m
mistbanken, nevel
Wijzigt naar
van 19 om 12 UTC tot 19 om 14 UTC
Wind 10 kt uit het noordnoordoosten

TAF: SBPA 182200Z 1900/1924 10008KT CAVOK TN15/1908Z TX26/1918Z PROB30 1907/1910 2000 BCFG BR NSC BECMG 1912/1914 03010KT RMK PER

Waarnemingen en weersverwachtingen van meer dan 4000 vliegvelden (METAR en TAF).

De beschikbare stations zijn de gele en rode punten op de kaart.

Ga met uw muis naar het station om de naam te zien.

Klik dan om waarnemingen en weersverwachtingen te zien.

kaart wijzigen: klik op de groene knoppen met een zwart kruis om in te zoomen, op de groene knop met een streepje om uit te zoomen of op de groene pijlen voor aangrenzende kaarten.


METAR-TAF: